PWSweather.com
Personal Weather Stations
Station Observations
KTXROCKW1
Rockwall And Hunt Counties, Rockwall, TX 75087

Rockwall And Hunt CountiesRockwall, TX 75087

Lat: 32.92, Lon: -96.46

Elevation: 563

Station Type:

http://www.telehobbies.com/weather

Latest ConditionsUpdated 7:20:20 AM CDT Monday, May 27, 2019
Currently Today's Max Today's Min Today's Average
Temperature 0.0°F-17.8°C 0.0°F-17.8°C 0.0°F-17.8°C 0.0°F-17.8°C
Dew Point 0.0°F-17.8°C 0.0°F-17.8°C 0.0°F-17.8°C 0.0°F-17.8°C
Winds Calm Calm Calm -Calm - - Calm Calm
Wind Gusts -- -- - -
Humidity 0% 0% 0% 0%
Pressure 29.51 in999.3 mb 29.51 in999.3 mb 29.45 in997.3 mb -
Hour Temp Dew Point Humidity Winds Wind Gusts Pressure Precip Precip Rate Daily Precip Total
07:20 AM 0.0°F-17.8°C 0.0°F-17.8°C 0% Calm Calm -- 29.51 in999.3 mb 0.00 in0.0 mm 0.00 in0.0 mm 0.00 in0.0 mm
07:15 AM 0.0°F-17.8°C 0.0°F-17.8°C 0% Calm Calm -- 29.51 in999.3 mb 0.00 in0.0 mm 0.00 in0.0 mm 0.00 in0.0 mm
07:10 AM 0.0°F-17.8°C 0.0°F-17.8°C 0% Calm Calm -- 29.50 in999.0 mb 0.00 in0.0 mm 0.00 in0.0 mm 0.00 in0.0 mm
07:01 AM 0.0°F-17.8°C 0.0°F-17.8°C 0% Calm Calm -- 29.50 in999.0 mb 0.00 in0.0 mm 0.00 in0.0 mm 0.00 in0.0 mm
06:55 AM 0.0°F-17.8°C 0.0°F-17.8°C 0% Calm Calm -- 29.50 in999.0 mb 0.00 in0.0 mm 0.00 in0.0 mm 0.00 in0.0 mm
06:51 AM 0.0°F-17.8°C 0.0°F-17.8°C 0% Calm Calm -- 29.50 in999.0 mb 0.00 in0.0 mm 0.00 in0.0 mm 0.00 in0.0 mm
06:45 AM 0.0°F-17.8°C 0.0°F-17.8°C 0% Calm Calm -- 29.50 in999.0 mb 0.00 in0.0 mm 0.00 in0.0 mm 0.00 in0.0 mm
06:41 AM 0.0°F-17.8°C 0.0°F-17.8°C 0% Calm Calm -- 29.50 in999.0 mb 0.00 in0.0 mm 0.00 in0.0 mm 0.00 in0.0 mm
06:30 AM 0.0°F-17.8°C 0.0°F-17.8°C 0% Calm Calm -- 29.49 in998.6 mb 0.00 in0.0 mm 0.00 in0.0 mm 0.00 in0.0 mm
06:25 AM 0.0°F-17.8°C 0.0°F-17.8°C 0% Calm Calm -- 29.49 in998.6 mb 0.00 in0.0 mm 0.00 in0.0 mm 0.00 in0.0 mm
06:20 AM 0.0°F-17.8°C 0.0°F-17.8°C 0% Calm Calm -- 29.49 in998.6 mb 0.00 in0.0 mm 0.00 in0.0 mm 0.00 in0.0 mm
06:16 AM 0.0°F-17.8°C 0.0°F-17.8°C 0% Calm Calm -- 29.49 in998.6 mb 0.00 in0.0 mm 0.00 in0.0 mm 0.00 in0.0 mm
06:10 AM 0.0°F-17.8°C 0.0°F-17.8°C 0% Calm Calm -- 29.49 in998.6 mb 0.00 in0.0 mm 0.00 in0.0 mm 0.00 in0.0 mm
06:01 AM 0.0°F-17.8°C 0.0°F-17.8°C 0% Calm Calm -- 29.49 in998.6 mb 0.00 in0.0 mm 0.00 in0.0 mm 0.00 in0.0 mm
05:55 AM 0.0°F-17.8°C 0.0°F-17.8°C 0% Calm Calm -- 29.49 in998.6 mb 0.00 in0.0 mm 0.00 in0.0 mm 0.00 in0.0 mm
05:51 AM 0.0°F-17.8°C 0.0°F-17.8°C 0% Calm Calm -- 29.48 in998.3 mb 0.00 in0.0 mm 0.00 in0.0 mm 0.00 in0.0 mm
05:46 AM 0.0°F-17.8°C 0.0°F-17.8°C 0% Calm Calm -- 29.49 in998.6 mb 0.00 in0.0 mm 0.00 in0.0 mm 0.00 in0.0 mm
05:41 AM 0.0°F-17.8°C 0.0°F-17.8°C 0% Calm Calm -- 29.48 in998.3 mb 0.00 in0.0 mm 0.00 in0.0 mm 0.00 in0.0 mm
05:30 AM 0.0°F-17.8°C 0.0°F-17.8°C 0% Calm Calm -- 29.48 in998.3 mb 0.00 in0.0 mm 0.00 in0.0 mm 0.00 in0.0 mm
05:25 AM 0.0°F-17.8°C 0.0°F-17.8°C 0% Calm Calm -- 29.49 in998.6 mb 0.00 in0.0 mm 0.00 in0.0 mm 0.00 in0.0 mm
05:21 AM 0.0°F-17.8°C 0.0°F-17.8°C 0% Calm Calm -- 29.48 in998.3 mb 0.00 in0.0 mm 0.00 in0.0 mm 0.00 in0.0 mm
05:15 AM 0.0°F-17.8°C 0.0°F-17.8°C 0% Calm Calm -- 29.48 in998.3 mb 0.00 in0.0 mm 0.00 in0.0 mm 0.00 in0.0 mm
05:10 AM 0.0°F-17.8°C 0.0°F-17.8°C 0% Calm Calm -- 29.48 in998.3 mb 0.00 in0.0 mm 0.00 in0.0 mm 0.00 in0.0 mm
05:00 AM 0.0°F-17.8°C 0.0°F-17.8°C 0% Calm Calm -- 29.48 in998.3 mb 0.00 in0.0 mm 0.00 in0.0 mm 0.00 in0.0 mm
04:50 AM 0.0°F-17.8°C 0.0°F-17.8°C 0% Calm Calm -- 29.48 in998.3 mb 0.00 in0.0 mm 0.00 in0.0 mm 0.00 in0.0 mm
04:46 AM 0.0°F-17.8°C 0.0°F-17.8°C 0% Calm Calm -- 29.47 in998.0 mb 0.00 in0.0 mm 0.00 in0.0 mm 0.00 in0.0 mm
04:40 AM 0.0°F-17.8°C 0.0°F-17.8°C 0% Calm Calm -- 29.48 in998.3 mb 0.00 in0.0 mm 0.00 in0.0 mm 0.00 in0.0 mm
04:30 AM 0.0°F-17.8°C 0.0°F-17.8°C 0% Calm Calm -- 29.48 in998.3 mb 0.00 in0.0 mm 0.00 in0.0 mm 0.00 in0.0 mm
04:25 AM 0.0°F-17.8°C 0.0°F-17.8°C 0% Calm Calm -- 29.48 in998.3 mb 0.00 in0.0 mm 0.00 in0.0 mm 0.00 in0.0 mm
04:20 AM 0.0°F-17.8°C 0.0°F-17.8°C 0% Calm Calm -- 29.48 in998.3 mb 0.00 in0.0 mm 0.00 in0.0 mm 0.00 in0.0 mm
04:15 AM 0.0°F-17.8°C 0.0°F-17.8°C 0% Calm Calm -- 29.48 in998.3 mb 0.00 in0.0 mm 0.00 in0.0 mm 0.00 in0.0 mm
04:10 AM 0.0°F-17.8°C 0.0°F-17.8°C 0% Calm Calm -- 29.48 in998.3 mb 0.00 in0.0 mm 0.00 in0.0 mm 0.00 in0.0 mm
04:01 AM 0.0°F-17.8°C 0.0°F-17.8°C 0% Calm Calm -- 29.47 in998.0 mb 0.00 in0.0 mm 0.00 in0.0 mm 0.00 in0.0 mm
03:55 AM 0.0°F-17.8°C 0.0°F-17.8°C 0% Calm Calm -- 29.48 in998.3 mb 0.00 in0.0 mm 0.00 in0.0 mm 0.00 in0.0 mm
03:51 AM 0.0°F-17.8°C 0.0°F-17.8°C 0% Calm Calm -- 29.47 in998.0 mb 0.00 in0.0 mm 0.00 in0.0 mm 0.00 in0.0 mm
03:46 AM 0.0°F-17.8°C 0.0°F-17.8°C 0% Calm Calm -- 29.48 in998.3 mb 0.00 in0.0 mm 0.00 in0.0 mm 0.00 in0.0 mm
03:40 AM 0.0°F-17.8°C 0.0°F-17.8°C 0% Calm Calm -- 29.47 in998.0 mb 0.00 in0.0 mm 0.00 in0.0 mm 0.00 in0.0 mm
03:30 AM 0.0°F-17.8°C 0.0°F-17.8°C 0% Calm Calm -- 29.47 in998.0 mb 0.00 in0.0 mm 0.00 in0.0 mm 0.00 in0.0 mm
03:25 AM 0.0°F-17.8°C 0.0°F-17.8°C 0% Calm Calm -- 29.47 in998.0 mb 0.00 in0.0 mm 0.00 in0.0 mm 0.00 in0.0 mm
03:20 AM 0.0°F-17.8°C 0.0°F-17.8°C 0% Calm Calm -- 29.47 in998.0 mb 0.00 in0.0 mm 0.00 in0.0 mm 0.00 in0.0 mm
03:15 AM 0.0°F-17.8°C 0.0°F-17.8°C 0% Calm Calm -- 29.47 in998.0 mb 0.00 in0.0 mm 0.00 in0.0 mm 0.00 in0.0 mm
03:11 AM 0.0°F-17.8°C 0.0°F-17.8°C 0% Calm Calm -- 29.46 in997.6 mb 0.00 in0.0 mm 0.00 in0.0 mm 0.00 in0.0 mm
03:00 AM 0.0°F-17.8°C 0.0°F-17.8°C 0% Calm Calm -- 29.45 in997.3 mb 0.00 in0.0 mm 0.00 in0.0 mm 0.00 in0.0 mm
02:55 AM 0.0°F-17.8°C 0.0°F-17.8°C 0% Calm Calm -- 29.45 in997.3 mb 0.00 in0.0 mm 0.00 in0.0 mm 0.00 in0.0 mm
02:50 AM 0.0°F-17.8°C 0.0°F-17.8°C 0% Calm Calm -- 29.45 in997.3 mb 0.00 in0.0 mm 0.00 in0.0 mm 0.00 in0.0 mm
02:40 AM 0.0°F-17.8°C 0.0°F-17.8°C 0% Calm Calm -- 29.45 in997.3 mb 0.00 in0.0 mm 0.00 in0.0 mm 0.00 in0.0 mm
02:30 AM 0.0°F-17.8°C 0.0°F-17.8°C 0% Calm Calm -- 29.46 in997.6 mb 0.00 in0.0 mm 0.00 in0.0 mm 0.00 in0.0 mm
02:25 AM 0.0°F-17.8°C 0.0°F-17.8°C 0% Calm Calm -- 29.46 in997.6 mb 0.00 in0.0 mm 0.00 in0.0 mm 0.00 in0.0 mm
02:20 AM 0.0°F-17.8°C 0.0°F-17.8°C 0% Calm Calm -- 29.45 in997.3 mb 0.00 in0.0 mm 0.00 in0.0 mm 0.00 in0.0 mm
02:15 AM 0.0°F-17.8°C 0.0°F-17.8°C 0% Calm Calm -- 29.46 in997.6 mb 0.00 in0.0 mm 0.00 in0.0 mm 0.00 in0.0 mm
02:10 AM 0.0°F-17.8°C 0.0°F-17.8°C 0% Calm Calm -- 29.47 in998.0 mb 0.00 in0.0 mm 0.00 in0.0 mm 0.00 in0.0 mm
02:01 AM 0.0°F-17.8°C 0.0°F-17.8°C 0% Calm Calm -- 29.49 in998.6 mb 0.00 in0.0 mm 0.00 in0.0 mm 0.00 in0.0 mm
01:55 AM 0.0°F-17.8°C 0.0°F-17.8°C 0% Calm Calm -- 29.50 in999.0 mb 0.00 in0.0 mm 0.00 in0.0 mm 0.00 in0.0 mm
01:50 AM 0.0°F-17.8°C 0.0°F-17.8°C 0% Calm Calm -- 29.50 in999.0 mb 0.00 in0.0 mm 0.00 in0.0 mm 0.00 in0.0 mm
01:45 AM 0.0°F-17.8°C 0.0°F-17.8°C 0% Calm Calm -- 29.50 in999.0 mb 0.00 in0.0 mm 0.00 in0.0 mm 0.00 in0.0 mm
01:40 AM 0.0°F-17.8°C 0.0°F-17.8°C 0% Calm Calm -- 29.50 in999.0 mb 0.00 in0.0 mm 0.00 in0.0 mm 0.00 in0.0 mm
01:35 AM 0.0°F-17.8°C 0.0°F-17.8°C 0% Calm Calm -- 29.49 in998.6 mb 0.00 in0.0 mm 0.00 in0.0 mm 0.00 in0.0 mm
01:30 AM 0.0°F-17.8°C 0.0°F-17.8°C 0% Calm Calm -- 29.49 in998.6 mb 0.00 in0.0 mm 0.00 in0.0 mm 0.00 in0.0 mm
01:26 AM 0.0°F-17.8°C 0.0°F-17.8°C 0% Calm Calm -- 29.49 in998.6 mb 0.00 in0.0 mm 0.00 in0.0 mm 0.00 in0.0 mm
01:20 AM 0.0°F-17.8°C 0.0°F-17.8°C 0% Calm Calm -- 29.50 in999.0 mb 0.00 in0.0 mm 0.00 in0.0 mm 0.00 in0.0 mm
01:16 AM 0.0°F-17.8°C 0.0°F-17.8°C 0% Calm Calm -- 29.50 in999.0 mb 0.00 in0.0 mm 0.00 in0.0 mm 0.00 in0.0 mm
01:10 AM 0.0°F-17.8°C 0.0°F-17.8°C 0% Calm Calm -- 29.50 in999.0 mb 0.00 in0.0 mm 0.00 in0.0 mm 0.00 in0.0 mm
01:00 AM 0.0°F-17.8°C 0.0°F-17.8°C 0% Calm Calm -- 29.50 in999.0 mb 0.00 in0.0 mm 0.00 in0.0 mm 0.00 in0.0 mm
12:56 AM 0.0°F-17.8°C 0.0°F-17.8°C 0% Calm Calm -- 29.49 in998.6 mb 0.00 in0.0 mm 0.00 in0.0 mm 0.00 in0.0 mm
12:50 AM 0.0°F-17.8°C 0.0°F-17.8°C 0% Calm Calm -- 29.49 in998.6 mb 0.00 in0.0 mm 0.00 in0.0 mm 0.00 in0.0 mm
12:46 AM 0.0°F-17.8°C 0.0°F-17.8°C 0% Calm Calm -- 29.49 in998.6 mb 0.00 in0.0 mm 0.00 in0.0 mm 0.00 in0.0 mm
12:40 AM 0.0°F-17.8°C 0.0°F-17.8°C 0% Calm Calm -- 29.48 in998.3 mb 0.00 in0.0 mm 0.00 in0.0 mm 0.00 in0.0 mm
12:30 AM 0.0°F-17.8°C 0.0°F-17.8°C 0% Calm Calm -- 29.49 in998.6 mb 0.00 in0.0 mm 0.00 in0.0 mm 0.00 in0.0 mm
12:25 AM 0.0°F-17.8°C 0.0°F-17.8°C 0% Calm Calm -- 29.49 in998.6 mb 0.00 in0.0 mm 0.00 in0.0 mm 0.00 in0.0 mm
12:20 AM 0.0°F-17.8°C 0.0°F-17.8°C 0% Calm Calm -- 29.49 in998.6 mb 0.00 in0.0 mm 0.00 in0.0 mm 0.00 in0.0 mm
12:15 AM 0.0°F-17.8°C 0.0°F-17.8°C 0% Calm Calm -- 29.49 in998.6 mb 0.00 in0.0 mm 0.00 in0.0 mm 0.00 in0.0 mm
12:10 AM 0.0°F-17.8°C 0.0°F-17.8°C 0% Calm Calm -- 29.49 in998.6 mb 0.00 in0.0 mm 0.00 in0.0 mm 0.00 in0.0 mm
12:00 AM 0.0°F-17.8°C 0.0°F-17.8°C 0% Calm Calm -- 29.49 in998.6 mb 0.00 in0.0 mm 0.00 in0.0 mm 0.00 in0.0 mm